Time,TemperatureF,DewpointF,PressureIn,WindDirection,WindDirectionDegrees,WindSpeedMPH,WindSpeedGustMPH,Humidity,HourlyPrecipIn,Conditions,Clouds,dailyrainin,SoftwareType,DateUTC
2013-06-24 00:01:00,67.9,66.1,30.14,SW,236,0.0,0.0,94,0.00,,---,0.00,VWS V14.01,2013-06-24 04:01:00,
2013-06-24 00:02:00,67.9,66.1,30.14,SW,236,0.0,0.0,94,0.00,,---,0.00,VWS V14.01,2013-06-24 04:02:00,
2013-06-24 00:03:00,67.8,66.0,30.14,SW,236,0.0,0.0,94,0.00,,---,0.00,VWS V14.01,2013-06-24 04:03:00,
2013-06-24 00:08:00,67.7,65.9,30.14,SW,236,0.0,2.0,94,0.00,,---,0.00,VWS V14.01,2013-06-24 04:08:00,
2013-06-24 00:13:00,67.6,65.8,30.14,SW,236,2.0,2.0,94,0.00,,---,0.00,VWS V14.01,2013-06-24 04:13:00,
2013-06-24 00:18:00,67.5,66.0,30.14,SW,236,0.0,2.0,95,0.00,,---,0.00,VWS V14.01,2013-06-24 04:18:00,
2013-06-24 00:23:00,67.5,66.0,30.14,SW,236,0.0,0.0,95,0.00,,---,0.00,VWS V14.01,2013-06-24 04:23:00,
2013-06-24 00:28:00,67.4,65.9,30.14,SW,236,0.0,0.0,95,0.00,,---,0.00,VWS V14.01,2013-06-24 04:28:00,
2013-06-24 00:33:00,67.2,65.4,30.14,SW,236,0.0,1.0,94,0.00,,---,0.00,VWS V14.01,2013-06-24 04:33:00,
2013-06-24 00:39:00,67.0,65.5,30.14,SW,236,0.0,1.0,95,0.00,,---,0.00,VWS V14.01,2013-06-24 04:39:00,
2013-06-24 00:44:00,67.0,65.5,30.14,SW,236,0.0,1.0,95,0.00,,---,0.00,VWS V14.01,2013-06-24 04:44:00,
2013-06-24 00:49:00,66.9,65.4,30.13,SW,236,0.0,2.0,95,0.00,,---,0.00,VWS V14.01,2013-06-24 04:49:00,
2013-06-24 00:54:00,66.8,65.3,30.14,SW,236,0.0,0.0,95,0.00,,---,0.00,VWS V14.01,2013-06-24 04:54:00,
2013-06-24 00:59:00,66.6,65.1,30.14,SW,236,0.0,0.0,95,0.00,,---,0.00,VWS V14.01,2013-06-24 04:59:00,
2013-06-24 01:04:00,66.5,65.0,30.13,SW,236,0.0,0.0,95,0.00,,---,0.00,VWS V14.01,2013-06-24 05:04:00,
2013-06-24 01:09:00,66.4,64.9,30.14,SW,236,0.0,0.0,95,0.00,,---,0.00,VWS V14.01,2013-06-24 05:09:00,
2013-06-24 01:14:00,66.3,64.8,30.13,SW,236,0.0,0.0,95,0.00,,---,0.00,VWS V14.01,2013-06-24 05:14:00,
2013-06-24 01:19:00,66.2,64.7,30.14,SW,236,0.0,0.0,95,0.00,,---,0.00,VWS V14.01,2013-06-24 05:19:00,
2013-06-24 01:24:00,66.2,65.0,30.13,SW,236,0.0,0.0,96,0.00,,---,0.00,VWS V14.01,2013-06-24 05:24:00,
2013-06-24 01:29:00,66.1,64.9,30.13,SW,236,0.0,0.0,96,0.00,,---,0.00,VWS V14.01,2013-06-24 05:29:00,
2013-06-24 01:34:00,66.1,64.9,30.14,SW,236,0.0,0.0,96,0.00,,---,0.00,VWS V14.01,2013-06-24 05:34:00,
2013-06-24 01:39:00,66.1,64.9,30.14,SW,236,0.0,0.0,96,0.00,,---,0.00,VWS V14.01,2013-06-24 05:39:00,
2013-06-24 01:45:00,66.1,64.9,30.14,SW,236,0.0,0.0,96,0.00,,---,0.00,VWS V14.01,2013-06-24 05:45:00,
2013-06-24 01:50:00,66.1,64.9,30.14,SW,236,0.0,0.0,96,0.00,,---,0.00,VWS V14.01,2013-06-24 05:50:00,
2013-06-24 01:56:00,66.1,64.9,30.14,SW,236,0.0,0.0,96,0.00,,---,0.00,VWS V14.01,2013-06-24 05:56:00,
2013-06-24 02:01:00,66.2,65.0,30.13,SW,236,0.0,0.0,96,0.00,,---,0.00,VWS V14.01,2013-06-24 06:01:00,
2013-06-24 02:06:00,66.2,65.0,30.13,SW,236,0.0,0.0,96,0.00,,---,0.00,VWS V14.01,2013-06-24 06:06:00,
2013-06-24 02:11:00,66.2,65.0,30.14,SW,236,0.0,0.0,96,0.00,,---,0.00,VWS V14.01,2013-06-24 06:11:00,
2013-06-24 02:17:00,66.2,65.0,30.13,SW,236,0.0,0.0,96,0.00,,---,0.00,VWS V14.01,2013-06-24 06:17:00,
2013-06-24 02:22:00,66.2,65.0,30.13,SW,236,0.0,0.0,96,0.00,,---,0.00,VWS V14.01,2013-06-24 06:22:00,
2013-06-24 02:27:00,66.2,65.0,30.14,SW,236,0.0,0.0,96,0.00,,---,0.00,VWS V14.01,2013-06-24 06:27:00,
2013-06-24 02:32:00,66.3,65.4,30.14,SW,224,0.0,0.0,97,0.00,,---,0.00,VWS V14.01,2013-06-24 06:32:00,
2013-06-24 02:37:00,66.3,65.1,30.14,SW,220,0.0,1.0,96,0.00,,---,0.00,VWS V14.01,2013-06-24 06:37:00,
2013-06-24 02:42:00,66.3,65.1,30.13,SW,220,0.0,0.0,96,0.00,,---,0.00,VWS V14.01,2013-06-24 06:42:00,
2013-06-24 02:47:00,66.2,65.0,30.13,SW,220,0.0,0.0,96,0.00,,---,0.00,VWS V14.01,2013-06-24 06:47:00,
2013-06-24 02:52:00,66.0,64.8,30.13,SW,220,0.0,0.0,96,0.00,,---,0.00,VWS V14.01,2013-06-24 06:52:00,
2013-06-24 02:57:00,65.8,64.6,30.13,SW,220,0.0,0.0,96,0.00,,---,0.00,VWS V14.01,2013-06-24 06:57:00,
2013-06-24 03:03:00,65.6,64.4,30.13,SW,220,0.0,0.0,96,0.00,,---,0.00,VWS V14.01,2013-06-24 07:03:00,
2013-06-24 03:08:00,65.5,64.3,30.13,SW,220,0.0,0.0,96,0.00,,---,0.00,VWS V14.01,2013-06-24 07:08:00,
2013-06-24 03:13:00,65.6,64.4,30.13,SW,220,0.0,0.0,96,0.00,,---,0.00,VWS V14.01,2013-06-24 07:13:00,
2013-06-24 03:18:00,65.4,64.2,30.13,SW,220,0.0,0.0,96,0.00,,---,0.00,VWS V14.01,2013-06-24 07:18:00,
2013-06-24 03:23:00,65.2,64.0,30.13,SW,220,0.0,1.0,96,0.00,,---,0.00,VWS V14.01,2013-06-24 07:23:00,
2013-06-24 03:29:00,65.2,64.0,30.13,SW,220,0.0,1.0,96,0.00,,---,0.00,VWS V14.01,2013-06-24 07:29:00,
2013-06-24 03:34:00,65.1,64.2,30.13,SW,220,0.0,1.0,97,0.00,,---,0.00,VWS V14.01,2013-06-24 07:34:00,
2013-06-24 03:39:00,65.1,63.9,30.13,SW,220,0.0,1.0,96,0.00,,---,0.00,VWS V14.01,2013-06-24 07:39:00,
2013-06-24 03:44:00,65.0,63.8,30.14,SW,220,0.0,0.0,96,0.00,,---,0.00,VWS V14.01,2013-06-24 07:44:00,
2013-06-24 03:49:00,65.1,64.2,30.14,SW,220,0.0,0.0,97,0.00,,---,0.00,VWS V14.01,2013-06-24 07:49:00,
2013-06-24 03:55:00,65.1,64.2,30.14,SW,220,0.0,0.0,97,0.00,,---,0.00,VWS V14.01,2013-06-24 07:55:00,
2013-06-24 04:00:00,65.2,64.3,30.14,SW,220,0.0,0.0,97,0.00,,---,0.00,VWS V14.01,2013-06-24 08:00:00,
2013-06-24 04:05:00,65.1,64.2,30.13,SW,220,0.0,0.0,97,0.00,,---,0.00,VWS V14.01,2013-06-24 08:05:00,
2013-06-24 04:10:00,65.0,63.8,30.13,SW,220,0.0,0.0,96,0.00,,---,0.00,VWS V14.01,2013-06-24 08:10:00,
2013-06-24 04:15:00,65.0,63.8,30.14,SW,220,0.0,0.0,96,0.00,,---,0.00,VWS V14.01,2013-06-24 08:15:00,
2013-06-24 04:21:00,65.0,64.1,30.14,SW,220,0.0,0.0,97,0.00,,---,0.00,VWS V14.01,2013-06-24 08:21:00,
2013-06-24 04:26:00,65.0,64.1,30.14,SW,220,0.0,0.0,97,0.00,,---,0.00,VWS V14.01,2013-06-24 08:26:00,
2013-06-24 04:31:00,65.0,64.1,30.14,SW,220,0.0,0.0,97,0.00,,---,0.00,VWS V14.01,2013-06-24 08:31:00,
2013-06-24 04:37:00,65.0,64.1,30.14,SW,220,0.0,1.0,97,0.00,,---,0.00,VWS V14.01,2013-06-24 08:37:00,
2013-06-24 04:42:00,65.0,64.1,30.14,SW,220,0.0,0.0,97,0.00,,---,0.00,VWS V14.01,2013-06-24 08:42:00,
2013-06-24 04:47:00,65.0,64.1,30.14,SW,220,0.0,1.0,97,0.00,,---,0.00,VWS V14.01,2013-06-24 08:47:00,
2013-06-24 04:52:00,64.9,63.7,30.14,SW,220,0.0,0.0,96,0.00,,---,0.00,VWS V14.01,2013-06-24 08:52:00,
2013-06-24 04:57:00,64.8,63.9,30.14,SW,220,0.0,0.0,97,0.00,,---,0.00,VWS V14.01,2013-06-24 08:57:00,
2013-06-24 05:03:00,64.7,63.8,30.14,SW,220,0.0,0.0,97,0.00,,---,0.00,VWS V14.01,2013-06-24 09:03:00,
2013-06-24 05:08:00,64.5,63.6,30.14,SW,220,0.0,0.0,97,0.00,,---,0.00,VWS V14.01,2013-06-24 09:08:00,
2013-06-24 05:13:00,64.5,63.6,30.14,SW,220,0.0,1.0,97,0.00,,---,0.00,VWS V14.01,2013-06-24 09:13:00,
2013-06-24 05:18:00,64.7,63.8,30.14,SW,224,0.0,1.0,97,0.00,,---,0.00,VWS V14.01,2013-06-24 09:18:00,
2013-06-24 05:23:00,64.8,63.9,30.14,SW,224,0.0,0.0,97,0.00,,---,0.00,VWS V14.01,2013-06-24 09:23:00,
2013-06-24 05:28:00,64.6,63.7,30.15,SW,224,0.0,0.0,97,0.00,,---,0.00,VWS V14.01,2013-06-24 09:28:00,
2013-06-24 05:33:00,64.4,63.5,30.14,SW,224,0.0,0.0,97,0.00,,---,0.00,VWS V14.01,2013-06-24 09:33:00,
2013-06-24 05:39:00,64.3,63.1,30.14,SW,224,0.0,1.0,96,0.00,,---,0.00,VWS V14.01,2013-06-24 09:39:00,
2013-06-24 05:44:00,64.1,62.9,30.14,SW,224,0.0,1.0,96,0.00,,---,0.00,VWS V14.01,2013-06-24 09:44:00,
2013-06-24 05:49:00,64.1,63.2,30.14,SW,224,1.0,1.0,97,0.00,,---,0.00,VWS V14.01,2013-06-24 09:49:00,
2013-06-24 05:54:00,64.1,63.2,30.14,SW,224,0.0,1.0,97,0.00,,---,0.00,VWS V14.01,2013-06-24 09:54:00,
2013-06-24 06:00:00,64.0,63.1,30.14,SW,224,0.0,1.0,97,0.00,,---,0.00,VWS V14.01,2013-06-24 10:00:00,
2013-06-24 06:05:00,63.9,63.0,30.14,SW,224,0.0,0.0,97,0.00,,---,0.00,VWS V14.01,2013-06-24 10:05:00,
2013-06-24 06:11:00,63.9,63.0,30.14,SW,224,0.0,0.0,97,0.00,,---,0.00,VWS V14.01,2013-06-24 10:11:00,
2013-06-24 06:16:00,63.8,62.9,30.14,SW,224,0.0,1.0,97,0.00,,---,0.00,VWS V14.01,2013-06-24 10:16:00,
2013-06-24 06:21:00,63.7,62.8,30.15,SW,224,0.0,0.0,97,0.00,,---,0.00,VWS V14.01,2013-06-24 10:21:00,
2013-06-24 06:26:00,63.7,62.8,30.15,SW,224,0.0,0.0,97,0.00,,---,0.00,VWS V14.01,2013-06-24 10:26:00,
2013-06-24 06:31:00,63.9,63.0,30.15,SW,224,0.0,0.0,97,0.00,,---,0.00,VWS V14.01,2013-06-24 10:31:00,
2013-06-24 06:36:00,64.0,63.4,30.15,SW,224,0.0,1.0,98,0.00,,---,0.00,VWS V14.01,2013-06-24 10:36:00,
2013-06-24 06:42:00,64.1,63.2,30.14,SW,224,0.0,0.0,97,0.00,,---,0.00,VWS V14.01,2013-06-24 10:42:00,
2013-06-24 06:47:00,64.3,63.4,30.14,SW,224,0.0,1.0,97,0.00,,---,0.00,VWS V14.01,2013-06-24 10:47:00,
2013-06-24 06:53:00,64.4,63.5,30.15,SW,224,0.0,0.0,97,0.00,,---,0.00,VWS V14.01,2013-06-24 10:53:00,
2013-06-24 06:58:00,64.7,64.1,30.15,SW,224,0.0,0.0,98,0.00,,---,0.00,VWS V14.01,2013-06-24 10:58:00,
2013-06-24 07:04:00,65.3,64.7,30.15,SW,224,0.0,0.0,98,0.00,,---,0.00,VWS V14.01,2013-06-24 11:04:00,
2013-06-24 07:09:00,65.9,65.3,30.15,SW,224,0.0,0.0,98,0.00,,---,0.00,VWS V14.01,2013-06-24 11:09:00,
2013-06-24 07:14:00,66.4,65.5,30.15,SW,224,0.0,1.0,97,0.00,,---,0.00,VWS V14.01,2013-06-24 11:14:00,
2013-06-24 07:19:00,66.8,65.6,30.15,SW,224,0.0,1.0,96,0.00,,---,0.00,VWS V14.01,2013-06-24 11:19:00,
2013-06-24 07:24:00,67.1,65.6,30.15,SW,224,0.0,0.0,95,0.00,,---,0.00,VWS V14.01,2013-06-24 11:24:00,
2013-06-24 07:30:00,67.5,66.0,30.15,SW,224,0.0,0.0,95,0.00,,---,0.00,VWS V14.01,2013-06-24 11:30:00,
2013-06-24 07:35:00,68.2,66.7,30.15,SW,224,0.0,0.0,95,0.00,,---,0.00,VWS V14.01,2013-06-24 11:35:00,
2013-06-24 07:40:00,68.8,67.0,30.15,SW,224,0.0,0.0,94,0.00,,---,0.00,VWS V14.01,2013-06-24 11:40:00,
2013-06-24 07:45:00,69.4,67.0,30.15,NNW,344,1.0,3.0,92,0.00,,---,0.00,VWS V14.01,2013-06-24 11:45:00,
2013-06-24 07:51:00,69.7,67.3,30.15,NNE,13,2.0,2.0,92,0.00,,---,0.00,VWS V14.01,2013-06-24 11:51:00,
2013-06-24 07:56:00,69.9,67.8,30.16,North,355,3.0,4.0,93,0.00,,---,0.00,VWS V14.01,2013-06-24 11:56:00,
2013-06-24 08:01:00,70.3,67.9,30.16,NNW,344,3.0,4.0,92,0.00,,---,0.00,VWS V14.01,2013-06-24 12:01:00,
2013-06-24 08:06:00,70.9,68.5,30.16,NNW,342,1.0,4.0,92,0.00,,---,0.00,VWS V14.01,2013-06-24 12:06:00,
2013-06-24 08:11:00,71.5,68.7,30.15,North,350,1.0,4.0,91,0.00,,---,0.00,VWS V14.01,2013-06-24 12:11:00,
2013-06-24 08:17:00,72.3,69.2,30.15,North,5,2.0,4.0,90,0.00,,---,0.00,VWS V14.01,2013-06-24 12:17:00,
2013-06-24 08:22:00,72.8,69.7,30.15,NNW,328,7.0,7.0,90,0.00,,---,0.00,VWS V14.01,2013-06-24 12:22:00,
2013-06-24 08:27:00,73.4,70.0,30.15,NNW,346,4.0,7.0,89,0.00,,---,0.00,VWS V14.01,2013-06-24 12:27:00,
2013-06-24 08:32:00,73.7,69.9,30.15,NW,315,1.0,3.0,88,0.00,,---,0.00,VWS V14.01,2013-06-24 12:32:00,
2013-06-24 08:38:00,73.8,69.7,30.15,WNW,294,2.0,4.0,87,0.00,,---,0.00,VWS V14.01,2013-06-24 12:38:00,
2013-06-24 08:44:00,73.6,69.2,30.16,WNW,303,2.0,5.0,86,0.00,,---,0.00,VWS V14.01,2013-06-24 12:44:00,
2013-06-24 08:49:00,73.4,70.0,30.16,West,269,2.0,5.0,89,0.00,,---,0.00,VWS V14.01,2013-06-24 12:49:00,
2013-06-24 08:54:00,73.3,69.5,30.16,West,267,5.0,5.0,88,0.00,,---,0.00,VWS V14.01,2013-06-24 12:54:00,
2013-06-24 08:59:00,73.1,69.3,30.16,WNW,289,1.0,5.0,88,0.00,,---,0.00,VWS V14.01,2013-06-24 12:59:00,
2013-06-24 09:04:00,73.3,69.5,30.16,NNW,331,1.0,4.0,88,0.00,,---,0.00,VWS V14.01,2013-06-24 13:04:00,
2013-06-24 09:09:00,73.7,69.6,30.16,WNW,302,1.0,4.0,87,0.00,,---,0.00,VWS V14.01,2013-06-24 13:09:00,
2013-06-24 09:15:00,73.8,69.7,30.16,WSW,254,3.0,4.0,87,0.00,,---,0.00,VWS V14.01,2013-06-24 13:15:00,
2013-06-24 09:20:00,74.1,69.7,30.16,SW,221,1.0,1.0,86,0.00,,---,0.00,VWS V14.01,2013-06-24 13:20:00,
2013-06-24 09:25:00,74.6,70.5,30.16,NW,311,3.0,4.0,87,0.00,,---,0.00,VWS V14.01,2013-06-24 13:25:00,
2013-06-24 09:30:00,75.1,69.6,30.16,SW,222,4.0,6.0,83,0.00,,---,0.00,VWS V14.01,2013-06-24 13:30:00,
2013-06-24 09:35:00,75.1,69.2,30.16,SW,221,3.0,7.0,82,0.00,,---,0.00,VWS V14.01,2013-06-24 13:35:00,
2013-06-24 09:41:00,75.1,69.6,30.16,WSW,246,5.0,5.0,83,0.00,,---,0.00,VWS V14.01,2013-06-24 13:41:00,
2013-06-24 09:46:00,75.2,69.3,30.16,SSW,195,3.0,5.0,82,0.00,,---,0.00,VWS V14.01,2013-06-24 13:46:00,
2013-06-24 09:51:00,75.1,69.6,30.16,SSW,199,5.0,5.0,83,0.00,,---,0.00,VWS V14.01,2013-06-24 13:51:00,
2013-06-24 09:56:00,75.4,69.9,30.16,South,182,1.0,5.0,83,0.00,,---,0.00,VWS V14.01,2013-06-24 13:56:00,
2013-06-24 10:01:00,75.9,70.0,30.16,SW,233,2.0,4.0,82,0.00,,---,0.00,VWS V14.01,2013-06-24 14:01:00,
2013-06-24 10:07:00,76.2,70.3,30.16,South,182,2.0,5.0,82,0.00,,---,0.00,VWS V14.01,2013-06-24 14:07:00,
2013-06-24 10:12:00,76.6,71.1,30.16,SW,214,2.0,3.0,83,0.00,,---,0.00,VWS V14.01,2013-06-24 14:12:00,
2013-06-24 10:18:00,77.0,70.4,30.16,WSW,248,4.0,5.0,80,0.00,,---,0.00,VWS V14.01,2013-06-24 14:18:00,
2013-06-24 10:23:00,77.1,70.5,30.16,WSW,241,3.0,6.0,80,0.00,,---,0.00,VWS V14.01,2013-06-24 14:23:00,
2013-06-24 10:28:00,77.3,71.0,30.16,WSW,257,2.0,6.0,81,0.00,,---,0.00,VWS V14.01,2013-06-24 14:28:00,
2013-06-24 10:34:00,77.3,70.7,30.16,WSW,247,0.0,8.0,80,0.00,,---,0.00,VWS V14.01,2013-06-24 14:34:00,
2013-06-24 10:40:00,77.5,70.8,30.16,SSW,194,1.0,8.0,80,0.00,,---,0.00,VWS V14.01,2013-06-24 14:40:00,
2013-06-24 10:45:00,77.9,71.6,30.16,SE,126,4.0,5.0,81,0.00,,---,0.00,VWS V14.01,2013-06-24 14:45:00,
2013-06-24 10:50:00,78.3,70.5,30.17,WSW,244,2.0,7.0,77,0.00,,---,0.00,VWS V14.01,2013-06-24 14:50:00,
2013-06-24 10:55:00,78.3,71.6,30.17,SE,132,2.0,7.0,80,0.00,,---,0.00,VWS V14.01,2013-06-24 14:55:00,
2013-06-24 11:01:00,78.4,70.6,30.17,South,172,3.0,4.0,77,0.00,,---,0.00,VWS V14.01,2013-06-24 15:01:00,
2013-06-24 11:06:00,78.5,71.4,30.17,SSW,202,4.0,5.0,79,0.00,,---,0.00,VWS V14.01,2013-06-24 15:06:00,
2013-06-24 11:11:00,78.9,71.1,30.17,WSW,242,3.0,4.0,77,0.00,,---,0.00,VWS V14.01,2013-06-24 15:11:00,
2013-06-24 11:17:00,78.9,71.5,30.17,WSW,238,3.0,4.0,78,0.00,,---,0.00,VWS V14.01,2013-06-24 15:17:00,
2013-06-24 11:22:00,78.8,70.6,30.17,WSW,252,4.0,5.0,76,0.00,,---,0.00,VWS V14.01,2013-06-24 15:22:00,
2013-06-24 11:27:00,78.7,70.9,30.17,SSE,163,3.0,5.0,77,0.00,,---,0.00,VWS V14.01,2013-06-24 15:27:00,
2013-06-24 11:32:00,79.0,70.8,30.17,SW,219,3.0,4.0,76,0.00,,---,0.00,VWS V14.01,2013-06-24 15:32:00,
2013-06-24 11:38:00,79.1,70.9,30.16,West,278,2.0,5.0,76,0.00,,---,0.00,VWS V14.01,2013-06-24 15:38:00,
2013-06-24 11:43:00,79.7,71.9,30.16,SW,223,2.0,3.0,77,0.00,,---,0.00,VWS V14.01,2013-06-24 15:43:00,
2013-06-24 11:48:00,80.3,71.3,30.16,ESE,107,1.0,6.0,74,0.00,,---,0.00,VWS V14.01,2013-06-24 15:48:00,
2013-06-24 11:53:00,80.3,70.9,30.16,SSW,207,3.0,7.0,73,0.00,,---,0.00,VWS V14.01,2013-06-24 15:53:00,
2013-06-24 11:58:00,80.5,70.7,30.16,ESE,121,3.0,7.0,72,0.00,,---,0.00,VWS V14.01,2013-06-24 15:58:00,
2013-06-24 12:03:00,80.8,70.9,30.16,WSW,241,2.0,6.0,72,0.00,,---,0.00,VWS V14.01,2013-06-24 16:03:00,
2013-06-24 12:08:00,81.0,71.9,30.15,NNE,22,2.0,6.0,74,0.00,,---,0.00,VWS V14.01,2013-06-24 16:08:00,
2013-06-24 12:14:00,81.3,71.8,30.15,South,190,2.0,7.0,73,0.00,,---,0.00,VWS V14.01,2013-06-24 16:14:00,
2013-06-24 12:19:00,81.4,71.1,30.15,ESE,112,3.0,7.0,71,0.00,,---,0.00,VWS V14.01,2013-06-24 16:19:00,
2013-06-24 12:24:00,81.6,71.7,30.15,SSW,211,3.0,6.0,72,0.00,,---,0.00,VWS V14.01,2013-06-24 16:24:00,
2013-06-24 12:30:00,81.8,71.1,30.14,South,171,3.0,6.0,70,0.00,,---,0.00,VWS V14.01,2013-06-24 16:30:00,
2013-06-24 12:35:00,82.0,71.7,30.14,ESE,123,1.0,5.0,71,0.00,,---,0.00,VWS V14.01,2013-06-24 16:35:00,
2013-06-24 12:40:00,82.0,71.7,30.14,ESE,103,3.0,3.0,71,0.00,,---,0.00,VWS V14.01,2013-06-24 16:40:00,
2013-06-24 12:45:00,82.4,71.6,30.14,ENE,69,2.0,4.0,70,0.00,,---,0.00,VWS V14.01,2013-06-24 16:45:00,
2013-06-24 12:50:00,82.5,71.3,30.13,ENE,78,2.0,4.0,69,0.00,,---,0.00,VWS V14.01,2013-06-24 16:50:00,
2013-06-24 12:56:00,82.5,70.9,30.13,ENE,57,5.0,7.0,68,0.00,,---,0.00,VWS V14.01,2013-06-24 16:56:00,
2013-06-24 13:01:00,82.5,70.9,30.13,SE,132,3.0,5.0,68,0.00,,---,0.00,VWS V14.01,2013-06-24 17:01:00,
2013-06-24 13:06:00,82.3,71.5,30.13,SE,144,0.0,5.0,70,0.00,,---,0.00,VWS V14.01,2013-06-24 17:06:00,
2013-06-24 13:11:00,82.3,72.0,30.13,SE,144,0.0,0.0,71,0.00,,---,0.00,VWS V14.01,2013-06-24 17:11:00,
2013-06-24 13:16:00,83.0,72.2,30.12,NE,54,0.0,3.0,70,0.00,,---,0.00,VWS V14.01,2013-06-24 17:16:00,
2013-06-24 13:21:00,83.4,71.7,30.12,South,182,1.0,4.0,68,0.00,,---,0.00,VWS V14.01,2013-06-24 17:21:00,
2013-06-24 13:26:00,83.5,72.7,30.11,SSE,150,6.0,6.0,70,0.00,,---,0.00,VWS V14.01,2013-06-24 17:26:00,
2013-06-24 13:31:00,83.6,71.1,30.11,NW,308,1.0,4.0,66,0.00,,---,0.00,VWS V14.01,2013-06-24 17:31:00,
2013-06-24 13:37:00,83.6,71.9,30.11,SE,146,3.0,5.0,68,0.00,,---,0.00,VWS V14.01,2013-06-24 17:37:00,
2013-06-24 13:42:00,83.4,70.9,30.11,ENE,65,2.0,2.0,66,0.00,,---,0.00,VWS V14.01,2013-06-24 17:42:00,
2013-06-24 13:47:00,83.6,70.6,30.10,East,85,7.0,10.0,65,0.00,,---,0.00,VWS V14.01,2013-06-24 17:47:00,
2013-06-24 13:52:00,83.7,70.7,30.10,ESE,109,1.0,7.0,65,0.00,,---,0.00,VWS V14.01,2013-06-24 17:52:00,
2013-06-24 13:58:00,84.1,70.6,30.10,SSE,165,3.0,8.0,64,0.00,,---,0.00,VWS V14.01,2013-06-24 17:58:00,
2013-06-24 14:03:00,84.0,70.5,30.10,SE,144,3.0,5.0,64,0.00,,---,0.00,VWS V14.01,2013-06-24 18:03:00,
2013-06-24 14:08:00,84.0,70.1,30.11,SSW,196,2.0,5.0,63,0.00,,---,0.00,VWS V14.01,2013-06-24 18:08:00,
2013-06-24 14:14:00,83.6,70.1,30.11,SSW,198,3.0,4.0,64,0.00,,---,0.00,VWS V14.01,2013-06-24 18:14:00,
2013-06-24 14:19:00,83.0,70.0,30.11,SW,223,1.0,4.0,65,0.00,,---,0.00,VWS V14.01,2013-06-24 18:19:00,
2013-06-24 14:24:00,82.5,70.9,30.11,SW,236,4.0,5.0,68,0.00,,---,0.00,VWS V14.01,2013-06-24 18:24:00,
2013-06-24 14:29:00,80.4,67.6,30.12,WSW,252,7.0,12.0,65,0.00,,---,0.00,VWS V14.01,2013-06-24 18:29:00,
2013-06-24 14:35:00,77.2,66.2,30.12,West,274,5.0,15.0,69,0.00,,---,0.00,VWS V14.01,2013-06-24 18:35:00,
2013-06-24 14:40:00,75.2,66.0,30.12,WNW,288,7.0,8.0,73,0.00,,---,0.00,VWS V14.01,2013-06-24 18:40:00,
2013-06-24 14:45:00,74.1,66.1,30.12,WNW,299,0.0,9.0,76,0.00,,---,0.00,VWS V14.01,2013-06-24 18:45:00,
2013-06-24 14:50:00,73.6,66.3,30.11,WNW,284,2.0,4.0,78,0.00,,---,0.00,VWS V14.01,2013-06-24 18:50:00,
2013-06-24 14:56:00,73.6,67.4,30.09,WNW,294,1.0,7.0,81,0.00,,---,0.00,VWS V14.01,2013-06-24 18:56:00,
2013-06-24 15:02:00,73.3,68.9,30.09,NNW,344,3.0,6.0,86,0.02,,---,0.02,VWS V14.01,2013-06-24 19:02:00,
2013-06-24 15:07:00,74.1,70.0,30.08,North,9,2.0,6.0,87,0.03,,---,0.03,VWS V14.01,2013-06-24 19:07:00,
2013-06-24 15:12:00,74.9,71.1,30.08,South,173,3.0,3.0,88,0.04,,---,0.04,VWS V14.01,2013-06-24 19:12:00,
2013-06-24 15:17:00,75.6,71.1,30.07,SSE,154,1.0,4.0,86,0.04,,---,0.04,VWS V14.01,2013-06-24 19:17:00,
2013-06-24 15:23:00,76.4,70.9,30.08,East,84,1.0,2.0,83,0.05,,---,0.05,VWS V14.01,2013-06-24 19:23:00,
2013-06-24 15:28:00,77.3,71.0,30.08,West,271,3.0,6.0,81,0.06,,---,0.06,VWS V14.01,2013-06-24 19:28:00,
2013-06-24 15:33:00,77.4,71.8,30.08,West,263,5.0,6.0,83,0.06,,---,0.06,VWS V14.01,2013-06-24 19:33:00,
2013-06-24 15:38:00,76.8,71.2,30.08,West,267,4.0,6.0,83,0.06,,---,0.06,VWS V14.01,2013-06-24 19:38:00,
2013-06-24 15:43:00,76.8,72.3,30.08,WNW,290,6.0,6.0,86,0.06,,---,0.06,VWS V14.01,2013-06-24 19:43:00,
2013-06-24 15:48:00,77.5,72.3,30.08,WNW,293,2.0,6.0,84,0.06,,---,0.06,VWS V14.01,2013-06-24 19:48:00,
2013-06-24 15:54:00,77.6,72.0,30.08,West,260,3.0,3.0,83,0.06,,---,0.06,VWS V14.01,2013-06-24 19:54:00,
2013-06-24 15:59:00,77.3,71.4,30.08,West,264,3.0,4.0,82,0.06,,---,0.06,VWS V14.01,2013-06-24 19:59:00,
2013-06-24 16:04:00,76.5,69.5,30.08,West,270,0.0,4.0,79,0.04,,---,0.06,VWS V14.01,2013-06-24 20:04:00,
2013-06-24 16:09:00,76.9,69.9,30.08,WNW,282,1.0,4.0,79,0.04,,---,0.06,VWS V14.01,2013-06-24 20:09:00,
2013-06-24 16:14:00,77.3,68.4,30.07,West,269,3.0,4.0,74,0.02,,---,0.06,VWS V14.01,2013-06-24 20:14:00,
2013-06-24 16:19:00,77.7,69.5,30.07,WNW,300,1.0,4.0,76,0.02,,---,0.06,VWS V14.01,2013-06-24 20:19:00,
2013-06-24 16:24:00,78.5,70.3,30.07,West,279,1.0,3.0,76,0.01,,---,0.06,VWS V14.01,2013-06-24 20:24:00,
2013-06-24 16:29:00,79.0,69.6,30.07,WSW,241,1.0,4.0,73,0.01,,---,0.06,VWS V14.01,2013-06-24 20:29:00,
2013-06-24 16:35:00,79.6,69.8,30.07,WSW,258,0.0,3.0,72,0.00,,---,0.06,VWS V14.01,2013-06-24 20:35:00,
2013-06-24 16:40:00,80.5,70.7,30.06,NE,41,4.0,4.0,72,0.00,,---,0.06,VWS V14.01,2013-06-24 20:40:00,
2013-06-24 16:46:00,81.1,70.8,30.06,WNW,290,3.0,4.0,71,0.00,,---,0.06,VWS V14.01,2013-06-24 20:46:00,
2013-06-24 16:51:00,81.7,71.8,30.06,NW,319,1.0,3.0,72,0.00,,---,0.06,VWS V14.01,2013-06-24 20:51:00,
2013-06-24 16:56:00,82.1,71.3,30.06,NE,49,2.0,3.0,70,0.00,,---,0.06,VWS V14.01,2013-06-24 20:56:00,
2013-06-24 17:01:00,82.3,71.5,30.05,WNW,290,1.0,3.0,70,0.00,,---,0.06,VWS V14.01,2013-06-24 21:01:00,
2013-06-24 17:07:00,82.6,72.2,30.05,WNW,287,3.0,3.0,71,0.00,,---,0.06,VWS V14.01,2013-06-24 21:07:00,
2013-06-24 17:12:00,83.1,71.0,30.05,SSW,194,1.0,3.0,67,0.00,,---,0.06,VWS V14.01,2013-06-24 21:12:00,
2013-06-24 17:17:00,83.3,70.3,30.05,SE,138,2.0,6.0,65,0.00,,---,0.06,VWS V14.01,2013-06-24 21:17:00,
2013-06-24 17:22:00,83.4,70.9,30.05,South,186,3.0,4.0,66,0.00,,---,0.06,VWS V14.01,2013-06-24 21:22:00,
2013-06-24 17:27:00,83.4,69.0,30.06,SSW,205,1.0,5.0,62,0.00,,---,0.06,VWS V14.01,2013-06-24 21:27:00,
2013-06-24 17:32:00,83.8,68.9,30.05,SSE,168,1.0,3.0,61,0.00,,---,0.06,VWS V14.01,2013-06-24 21:32:00,
2013-06-24 17:38:00,84.3,69.9,30.06,South,191,3.0,4.0,62,0.00,,---,0.06,VWS V14.01,2013-06-24 21:38:00,
2013-06-24 17:43:00,84.5,69.1,30.06,ESE,111,2.0,4.0,60,0.00,,---,0.06,VWS V14.01,2013-06-24 21:43:00,
2013-06-24 17:48:00,84.2,68.8,30.05,SSE,160,2.0,4.0,60,0.00,,---,0.06,VWS V14.01,2013-06-24 21:48:00,
2013-06-24 17:53:00,83.9,70.4,30.05,SSE,159,2.0,3.0,64,0.00,,---,0.06,VWS V14.01,2013-06-24 21:53:00,
2013-06-24 17:58:00,83.6,69.7,30.05,SE,138,2.0,3.0,63,0.00,,---,0.06,VWS V14.01,2013-06-24 21:58:00,
2013-06-24 18:03:00,83.0,71.4,30.05,SSE,163,1.0,3.0,68,0.00,,---,0.06,VWS V14.01,2013-06-24 22:03:00,
2013-06-24 18:09:00,82.1,71.8,30.06,South,184,1.0,3.0,71,0.00,,---,0.06,VWS V14.01,2013-06-24 22:09:00,
2013-06-24 18:14:00,81.3,71.0,30.06,South,176,0.0,2.0,71,0.00,,---,0.06,VWS V14.01,2013-06-24 22:14:00,
2013-06-24 18:19:00,81.1,71.6,30.06,South,176,0.0,2.0,73,0.00,,---,0.06,VWS V14.01,2013-06-24 22:19:00,
2013-06-24 18:25:00,81.2,72.1,30.06,South,176,0.0,1.0,74,0.00,,---,0.06,VWS V14.01,2013-06-24 22:25:00,
2013-06-24 18:30:00,81.6,72.1,30.06,South,176,1.0,2.0,73,0.00,,---,0.06,VWS V14.01,2013-06-24 22:30:00,
2013-06-24 18:35:00,82.3,71.1,30.06,SSE,163,2.0,3.0,69,0.00,,---,0.06,VWS V14.01,2013-06-24 22:35:00,
2013-06-24 18:40:00,83.0,70.9,30.07,SE,128,4.0,5.0,67,0.00,,---,0.06,VWS V14.01,2013-06-24 22:40:00,
2013-06-24 18:46:00,83.2,71.6,30.06,South,186,3.0,5.0,68,0.00,,---,0.06,VWS V14.01,2013-06-24 22:46:00,
2013-06-24 18:51:00,83.2,71.6,30.06,SSE,159,3.0,4.0,68,0.00,,---,0.06,VWS V14.01,2013-06-24 22:51:00,
2013-06-24 18:56:00,82.7,71.9,30.05,South,184,2.0,6.0,70,0.00,,---,0.06,VWS V14.01,2013-06-24 22:56:00,
2013-06-24 19:01:00,82.2,71.9,30.05,South,178,3.0,4.0,71,0.00,,---,0.06,VWS V14.01,2013-06-24 23:01:00,
2013-06-24 19:06:00,82.0,72.1,30.05,SSE,148,2.0,4.0,72,0.00,,---,0.06,VWS V14.01,2013-06-24 23:06:00,
2013-06-24 19:11:00,81.9,72.0,30.05,SE,131,4.0,4.0,72,0.00,,---,0.06,VWS V14.01,2013-06-24 23:11:00,
2013-06-24 19:17:00,82.0,71.7,30.04,SSW,201,2.0,4.0,71,0.00,,---,0.06,VWS V14.01,2013-06-24 23:17:00,
2013-06-24 19:22:00,82.1,72.2,30.04,South,182,2.0,5.0,72,0.00,,---,0.06,VWS V14.01,2013-06-24 23:22:00,
2013-06-24 19:27:00,82.0,71.7,30.04,South,169,1.0,5.0,71,0.00,,---,0.06,VWS V14.01,2013-06-24 23:27:00,
2013-06-24 19:32:00,81.6,71.3,30.05,South,180,2.0,5.0,71,0.00,,---,0.06,VWS V14.01,2013-06-24 23:32:00,
2013-06-24 19:38:00,81.2,71.3,30.05,SE,130,3.0,5.0,72,0.00,,---,0.06,VWS V14.01,2013-06-24 23:38:00,
2013-06-24 19:43:00,80.5,70.2,30.05,South,173,4.0,8.0,71,0.00,,---,0.06,VWS V14.01,2013-06-24 23:43:00,
2013-06-24 19:48:00,80.0,69.8,30.06,SSE,157,2.0,8.0,71,0.00,,---,0.06,VWS V14.01,2013-06-24 23:48:00,
2013-06-24 19:53:00,79.5,69.7,30.06,SSE,162,2.0,6.0,72,0.00,,---,0.06,VWS V14.01,2013-06-24 23:53:00,
2013-06-24 19:59:00,78.9,69.5,30.07,SSE,148,3.0,6.0,73,0.00,,---,0.06,VWS V14.01,2013-06-24 23:59:00,
2013-06-24 20:04:00,78.6,69.6,30.07,SSE,147,1.0,3.0,74,0.00,,---,0.06,VWS V14.01,2013-06-25 00:04:00,
2013-06-24 20:09:00,78.2,69.6,30.07,SE,142,1.0,3.0,75,0.00,,---,0.06,VWS V14.01,2013-06-25 00:09:00,
2013-06-24 20:15:00,77.8,69.6,30.08,SE,142,0.0,1.0,76,0.00,,---,0.06,VWS V14.01,2013-06-25 00:15:00,
2013-06-24 20:20:00,77.3,69.9,30.07,SE,142,0.0,1.0,78,0.00,,---,0.06,VWS V14.01,2013-06-25 00:20:00,
2013-06-24 20:26:00,76.7,70.1,30.07,SE,142,0.0,2.0,80,0.00,,---,0.06,VWS V14.01,2013-06-25 00:26:00,
2013-06-24 20:31:00,76.1,69.8,30.07,SE,133,0.0,1.0,81,0.00,,---,0.06,VWS V14.01,2013-06-25 00:31:00,
2013-06-24 20:36:00,75.5,69.6,30.07,SE,133,0.0,1.0,82,0.00,,---,0.06,VWS V14.01,2013-06-25 00:36:00,
2013-06-24 20:42:00,74.8,68.9,30.07,SSW,205,0.0,1.0,82,0.00,,---,0.06,VWS V14.01,2013-06-25 00:42:00,
2013-06-24 20:47:00,74.5,69.3,30.07,SSW,205,1.0,3.0,84,0.00,,---,0.06,VWS V14.01,2013-06-25 00:47:00,
2013-06-24 20:52:00,73.8,69.3,30.07,South,175,1.0,2.0,86,0.00,,---,0.06,VWS V14.01,2013-06-25 00:52:00,
2013-06-24 20:58:00,73.1,69.0,30.06,South,185,0.0,2.0,87,0.00,,---,0.06,VWS V14.01,2013-06-25 00:58:00,
2013-06-24 21:03:00,72.6,69.2,30.07,South,185,0.0,1.0,89,0.00,,---,0.06,VWS V14.01,2013-06-25 01:03:00,
2013-06-24 21:08:00,72.3,68.9,30.07,South,185,0.0,1.0,89,0.00,,---,0.06,VWS V14.01,2013-06-25 01:08:00,
2013-06-24 21:13:00,72.1,69.0,30.07,South,185,0.0,1.0,90,0.00,,---,0.06,VWS V14.01,2013-06-25 01:13:00,
2013-06-24 21:19:00,71.7,68.6,30.06,South,185,0.0,1.0,90,0.00,,---,0.06,VWS V14.01,2013-06-25 01:19:00,
2013-06-24 21:24:00,71.4,68.6,30.07,South,185,1.0,1.0,91,0.00,,---,0.06,VWS V14.01,2013-06-25 01:24:00,
2013-06-24 21:30:00,71.2,68.8,30.07,SE,124,0.0,5.0,92,0.00,,---,0.06,VWS V14.01,2013-06-25 01:30:00,
2013-06-24 21:35:00,71.4,68.6,30.06,SE,124,0.0,1.0,91,0.00,,---,0.06,VWS V14.01,2013-06-25 01:35:00,
2013-06-24 21:40:00,71.3,68.5,30.06,SE,124,0.0,0.0,91,0.00,,---,0.06,VWS V14.01,2013-06-25 01:40:00,
2013-06-24 21:46:00,71.0,68.6,30.06,SE,124,0.0,0.0,92,0.00,,---,0.06,VWS V14.01,2013-06-25 01:46:00,
2013-06-24 21:51:00,70.7,68.3,30.07,SE,124,0.0,0.0,92,0.00,,---,0.06,VWS V14.01,2013-06-25 01:51:00,
2013-06-24 21:56:00,70.6,68.5,30.07,SE,124,0.0,0.0,93,0.00,,---,0.06,VWS V14.01,2013-06-25 01:56:00,
2013-06-24 22:01:00,70.8,68.7,30.08,SE,124,0.0,0.0,93,0.00,,---,0.06,VWS V14.01,2013-06-25 02:01:00,
2013-06-24 22:06:00,70.8,68.7,30.08,SE,124,0.0,1.0,93,0.00,,---,0.06,VWS V14.01,2013-06-25 02:06:00,
2013-06-24 22:11:00,70.7,68.6,30.09,SE,124,1.0,2.0,93,0.00,,---,0.06,VWS V14.01,2013-06-25 02:11:00,
2013-06-24 22:16:00,70.6,68.5,30.08,SE,124,0.0,2.0,93,0.00,,---,0.06,VWS V14.01,2013-06-25 02:16:00,
2013-06-24 22:22:00,70.4,68.3,30.09,SE,124,1.0,1.0,93,0.00,,---,0.06,VWS V14.01,2013-06-25 02:22:00,
2013-06-24 22:27:00,70.2,68.4,30.09,South,175,0.0,1.0,94,0.00,,---,0.06,VWS V14.01,2013-06-25 02:27:00,
2013-06-24 22:32:00,70.2,68.4,30.09,South,175,0.0,0.0,94,0.00,,---,0.06,VWS V14.01,2013-06-25 02:32:00,
2013-06-24 22:38:00,70.2,68.7,30.09,South,175,0.0,0.0,95,0.00,,---,0.06,VWS V14.01,2013-06-25 02:38:00,
2013-06-24 22:43:00,70.2,68.4,30.09,South,175,0.0,0.0,94,0.00,,---,0.06,VWS V14.01,2013-06-25 02:43:00,
2013-06-24 22:48:00,70.1,68.3,30.10,South,175,0.0,0.0,94,0.00,,---,0.06,VWS V14.01,2013-06-25 02:48:00,
2013-06-24 22:53:00,70.2,68.7,30.10,South,175,0.0,1.0,95,0.00,,---,0.06,VWS V14.01,2013-06-25 02:53:00,
2013-06-24 22:58:00,70.2,68.7,30.10,SSE,165,0.0,1.0,95,0.00,,---,0.06,VWS V14.01,2013-06-25 02:58:00,
2013-06-24 23:03:00,70.1,68.3,30.10,SSE,165,0.0,1.0,94,0.00,,---,0.06,VWS V14.01,2013-06-25 03:03:00,
2013-06-24 23:09:00,70.0,68.5,30.10,SSE,165,0.0,1.0,95,0.00,,---,0.06,VWS V14.01,2013-06-25 03:09:00,
2013-06-24 23:14:00,69.9,68.4,30.10,SSE,165,0.0,1.0,95,0.00,,---,0.06,VWS V14.01,2013-06-25 03:14:00,
2013-06-24 23:19:00,69.8,68.3,30.10,SSE,165,0.0,1.0,95,0.00,,---,0.06,VWS V14.01,2013-06-25 03:19:00,
2013-06-24 23:24:00,69.7,68.2,30.10,SSE,165,0.0,2.0,95,0.00,,---,0.06,VWS V14.01,2013-06-25 03:24:00,
2013-06-24 23:29:00,69.5,68.0,30.09,SSE,165,0.0,2.0,95,0.00,,---,0.06,VWS V14.01,2013-06-25 03:29:00,
2013-06-24 23:36:00,69.4,67.9,30.09,SSE,165,0.0,2.0,95,0.00,,---,0.06,VWS V14.01,2013-06-25 03:36:00,
2013-06-24 23:41:00,69.4,68.2,30.09,SSE,165,0.0,0.0,96,0.00,,---,0.06,VWS V14.01,2013-06-25 03:41:00,
2013-06-24 23:46:00,69.5,68.3,30.09,SSE,165,1.0,2.0,96,0.00,,---,0.06,VWS V14.01,2013-06-25 03:46:00,
2013-06-24 23:53:00,69.4,67.9,30.09,SSE,165,1.0,2.0,95,0.00,,---,0.06,VWS V14.01,2013-06-25 03:53:00,
2013-06-24 23:58:00,69.3,67.8,30.09,South,176,0.0,2.0,95,0.00,,---,0.06,VWS V14.01,2013-06-25 03:58:00,